Highlands Ranch, CO (80130)

1:02 PM MDT on September 16, 2014 (GMT -0600)
Grant's PWS | Change Station
CLOSE
Current Station
Personal Weather Station
Location: Castle Rock, CO
Elevation: 6109 ft
Nearby Weather Stations

Elev 6109 ft 39.41 °N, 104.92 °W | Updated 3 seconds ago

Clear
Clear
78.7 °F
Feels Like 78 °F
N
0.0
Wind Variable Wind from NW
Gusts 2.0 mph

Today
High -- | Low -- °F
--% Chance of Precip.
Yesterday
High -- | Low -- °F
Precip. -- in
6:41 AM 7:06 PM
Last Quarter, 43% visible
Pressure 30.01 in
Visibility 10.0 miles
Clouds Few 11000 ft
Few 14000 ft
Heat Index 78 °F
Dew Point 44 °F
Humidity 29%
Rainfall 0.00 in
Snow Depth 14 in , 22 in , 0 in
UV 8 out of 12
Pollen 8.10 out of 12
Ozone Good
PM2.5 Good
Flu Activity Not available.
METAR KAPA 161853Z VRB05KT 10SM FEW110 FEW140 27/M01 A3019 RMK AO2 SLP160 T02721006

More Conditions Fewer Conditions

Pressure 30.01 in
Visibility 10.0 miles
Clouds Few 11000 ft
Few 14000 ft
Heat Index 78 °F
Dew Point 44 °F
Humidity 29%
Rainfall 0.00 in
Snow Depth 14 in , 22 in , 0 in
UV 8 out of 12
Pollen 8.10 out of 12
Ozone Good
PM2.5 Good
Flu Activity Not available.
METAR KAPA 161853Z VRB05KT 10SM FEW110 FEW140 27/M01 A3019 RMK AO2 SLP160 T02721006

More Conditions Fewer Conditions

10-Day Weather Forecast

Almanac

Astronomy

Sep. 16, 2014 Rise Set
Actual Time 6:41 AM MDT 7:06 PM MDT
Civil Twilight 6:15 AM MDT 7:33 PM MDT
Nautical Twilight 5:43 AM MDT 8:05 PM MDT
Astronomical Twilight 5:10 AM MDT 8:37 PM MDT
Moon No Moon Rise 2:31 PM MDT
Length of Visible Light 13h 18m
Length of Day
12h 24m
Tomorrow will be 2m 33s shorter.
Last Quarter, 43% of the Moon is Illuminated
Today
Last Quarter
Sep 24
New
Oct 1
First Quarter
Oct 8
Full
Oct 15
Last Quarter

Today's Extremes

State Highs State Lows

Community

WunderPhotos

Upload Photos

1,753,860 photos uploaded!

WunderBlogs® & News

Nearby

Air Quality

  Air Quality AQ Index Pollutant
Yesterday Good
OZONE
Yesterday Good
PM10
Current Good
OZONE
Current Good
PM2.5
Tuesday Moderate
OZONE
Tuesday Good
PM2.5

Snow Depth

Station Depth Elevation
Mccoy Park 14 in 9480 ft
Rawah 22 in 9020 ft
Jackwhacker Gulch 0 in 10960 ft
Red Mountain Pass 0 in 11150 ft
Independence Pass 186 in 10600 ft

Earthquake Activity

City Distance Mag. Time & Date
No recent earthquake activity has been reported nearby.
Minimum magnitude displayed is 2.5.

Coastal Water Temperatures

Place Temperature
No Stations Reporting

Nearby Weather Stations